Michel Bizoux

Michel Bizoux

Statistiques 2026

  • Courses courues : 24
  • Nb de victoires : -
  • Nb de places : 2
  • Écart gagnant : 29
  • Réussite à la gagne : -
  • Réussite à la place : 8%
Musique : 6a 2a 6a Dista 0a 3a Da 7a 0a 4a 0a 6a Da 6a 0a 8a Da 4a
DateRangCatégorieAlloc.Dist.HippodromeChevalRed. KmSpé.
14/10/14 0 Trot 7 200€ 2 850m Be-Mons Vorlando Attelé
14/10/14 3 Trot 7 200€ 2 850m Be-Mons Viken 1'17"9 Attelé
14/10/14 2 Trot 7 200€ 1 750m Be-Mons Armoise 1'15"9 Attelé
09/10/14 8 Trot 37 000€ 2 150m Enghien Soisy Anna d'Elma 1'16"5 Attelé lire

Très vite à la pointe du combat, a très nettement accusé le coup dans la phase finale.

07/10/14 6 Trot 7 200€ 2 300m Be-Mons Uvilland 1'16"9 Attelé
07/10/14 4 Trot 7 200€ 2 300m Be-Mons Vorlando 1'17"5 Attelé
06/10/14 6 Trot 15 000€ 2 700m Le Croise Laroche Aola du Vautour 1'17"6 Attelé
06/10/14 6 Trot 15 000€ 2 825m Le Croise Laroche Bellino Deelle 1'20"2 Attelé
05/10/14 D Trot 12 000€ 2 625m Saint Omer Bryone du Goutier Attelé
05/10/14 1 Trot 12 000€ 2 650m Saint Omer Angelique du Rez TNC Attelé
05/10/14 D Trot 12 000€ 2 625m Saint Omer Borigano Attelé
28/09/14 0 Trot 13 000€ 2 650m Saint Omer Bea des Marais Attelé
28/09/14 0 Trot 25 000€ 2 650m Saint Omer Soleil Castelets Attelé
28/09/14 4 Trot 14 000€ 2 625m Saint Omer Armoise Attelé
28/09/14 4 Trot 14 000€ 2 650m Saint Omer Athos des Marais Attelé
27/09/14 9 Trot 20 000€ 2 700m Le Croise Laroche Vickina 1'16"0 Attelé
18/09/14 0 Trot 38 000€ 2 100m Vincennes Anna d'Elma Attelé lire

A figuré au sein du peloton sans pouvoir changer de rythme pour finir.

17/09/14 5 Trot 2 300m Be-Mons Vorlando 1'17"7 Attelé
15/09/14 5 Trot 15 000€ 2 825m Le Croise Laroche Angelique du Rez 1'18"8 Attelé
15/09/14 D Trot 15 000€ 2 700m Le Croise Laroche Bellino Deelle Attelé
14/09/14 7 Trot 17 000€ 2 650m Laon Aola du Vautour 1'19"1 Attelé
04/09/14 3 Trot 20 000€ 2 825m Strasbourg Voici de Lahaye 1'18"4 Attelé lire

Longtemps dans la dernière partie du peloton, a su gagner du terrain tout au long de la phase finale.

31/08/14 0 Trot 15 000€ 2 625m Saint Omer Valino Attelé
31/08/14 D Trot 25 000€ 2 650m Saint Omer Soleil Castelets Attelé
31/08/14 7 Trot 13 000€ 2 625m Saint Omer Argent de Tillard Attelé
31/08/14 D Trot 13 000€ 2 625m Saint Omer Bodiline Attelé
26/08/14 D Trot 20 000€ 2 700m La Capelle Voici de Lahaye Attelé
23/08/14 8 Trot 12 000€ 2 600m Le Touquet Bellino Deelle Attelé
23/08/14 2 Trot 12 000€ 2 625m Le Touquet Belle de Muidorge Attelé
22/08/14 D Trot Be-Mons Vorlando Attelé
22/08/14 0 Trot Be-Mons Victoire du Bisson Attelé
21/08/14 5 Trot 22 000€ 2 850m Mauquenchy Aola du Vautour 1'17"1 Attelé lire

Après avoir longtemps trotté en queue de peloton, a su gagner du terrain dans la phase finale, puis a bien conclu.

17/08/14 5 Mixte 13 000€ 2 700m Vittel Valino 1'24"2 Attelé
12/08/14 2 Trot 20 000€ 2 775m Hyeres Valinette 1'17"1 Attelé
12/08/14 2 Trot 18 000€ 2 775m Hyeres Anna d'Elma 1'17"2 Attelé
11/08/14 0 Trot 11 000€ 2 550m Dieppe Bellino Deelle Attelé
08/08/14 5 Trot 21 000€ 2 700m La Capelle Aola du Vautour 1'16"8 Attelé
03/08/14 0 Trot 22 000€ 3 150m Abbeville Salva Attelé
03/08/14 3 Trot 14 000€ 3 150m Abbeville Alibi des Salines Attelé
03/08/14 D Trot 12 000€ 2 300m Abbeville Bryone du Goutier Attelé
03/08/14 7 Trot 12 000€ 2 325m Abbeville Bea des Marais Attelé
03/08/14 D Trot 12 000€ 2 300m Abbeville Bulls Of Chicago Attelé
01/08/14 D Trot 15 000€ 2 400m Amiens Angelique du Rez Attelé
30/07/14 3 Trot 32 000€ 2 950m Cagnes Sur Mer Urtikaline 1'14"8 Attelé
28/07/14 9 Trot 21 000€ 2 850m Mauquenchy Aola du Vautour 1'18"4 Attelé
27/07/14 0 Trot 16 000€ 2 700m La Capelle Venus d'Orsinval Attelé
27/07/14 5 Trot 19 000€ 2 775m La Capelle Voici de Lahaye 1'16"5 Attelé
26/07/14 D Trot 21 000€ 2 950m Le Mans Vickina Attelé
25/07/14 D Trot 7 200€ 2 300m Be-Mons Vorlando Attelé
19/07/14 D Trot 14 000€ 2 600m Le Touquet Avignon d'Aunay Attelé